createdAt,value
2019-02-02T00:00:58.609Z,69.64
2019-02-02T00:03:30.781Z,69.63
2019-02-02T00:06:02.937Z,69.82
2019-02-02T00:08:34.952Z,69.82
2019-02-02T00:11:07.310Z,69.74
2019-02-02T00:13:38.005Z,69.78
2019-02-02T00:16:10.324Z,69.72
2019-02-02T00:18:42.348Z,69.52
2019-02-02T00:21:13.258Z,69.49
2019-02-02T00:23:45.324Z,69.53
2019-02-02T00:26:16.075Z,69.56
2019-02-02T00:31:39.097Z,70.02
2019-02-02T00:34:11.283Z,70.02
2019-02-02T00:36:41.870Z,70.04
2019-02-02T00:39:14.147Z,70.10
2019-02-02T00:41:44.866Z,70.09
2019-02-02T00:44:16.961Z,70.41
2019-02-02T00:46:48.950Z,70.41
2019-02-02T00:49:20.962Z,70.33
2019-02-02T00:51:53.128Z,70.77
2019-02-02T00:54:23.811Z,70.58
2019-02-02T00:56:55.953Z,70.52
2019-02-02T00:59:27.957Z,70.82
2019-02-02T01:01:59.958Z,70.96
2019-02-02T01:04:31.961Z,70.85
2019-02-02T01:07:04.016Z,70.68
2019-02-02T01:09:36.285Z,70.57
2019-02-02T01:12:06.685Z,70.76
2019-02-02T01:14:38.779Z,70.76
2019-02-02T01:17:11.256Z,71.05
2019-02-02T01:19:42.041Z,71.35
2019-02-02T01:22:14.257Z,71.59
2019-02-02T01:24:44.654Z,72.03
2019-02-02T01:27:19.797Z,71.59
2019-02-02T01:29:51.951Z,71.47
2019-02-02T01:32:23.949Z,71.71
2019-02-02T01:34:56.058Z,71.79
2019-02-02T01:37:26.868Z,71.55
2019-02-02T01:39:59.283Z,71.44
2019-02-02T01:42:29.850Z,71.41
2019-02-02T01:45:01.964Z,71.60
2019-02-02T01:47:34.162Z,71.93
2019-02-02T01:50:04.828Z,72.12
2019-02-02T01:52:36.951Z,72.15
2019-02-02T01:55:10.740Z,72.01
2019-02-02T01:57:42.948Z,71.92
2019-02-02T02:00:25.680Z,71.87
2019-02-02T02:02:57.941Z,71.89
2019-02-02T02:05:30.085Z,71.84
2019-02-02T02:08:01.020Z,71.85
2019-02-02T02:10:33.183Z,71.75
2019-02-02T02:13:03.868Z,71.65
2019-02-02T02:15:36.134Z,71.59
2019-02-02T02:18:08.319Z,71.92
2019-02-02T02:20:38.904Z,72.93
2019-02-02T02:23:10.959Z,73.86
2019-02-02T02:25:43.113Z,73.99
2019-02-02T02:28:15.289Z,73.94
2019-02-02T02:30:47.486Z,74.08
2019-02-02T02:33:19.945Z,74.06
2019-02-02T02:35:52.136Z,74.51
2019-02-02T02:38:22.898Z,74.70
2019-02-02T02:40:54.959Z,74.86
2019-02-02T02:43:26.959Z,74.57
2019-02-02T02:45:59.277Z,74.21
2019-02-02T02:48:29.703Z,74.42
2019-02-02T02:51:01.901Z,74.43
2019-02-02T02:53:33.954Z,74.20
2019-02-02T02:56:06.330Z,73.93
2019-02-02T02:58:41.681Z,73.23
2019-02-02T03:01:12.305Z,73.23
2019-02-02T03:03:44.288Z,72.93
2019-02-02T03:06:14.782Z,72.40
2019-02-02T03:08:46.887Z,72.33
2019-02-02T03:11:19.147Z,72.62
2019-02-02T03:13:51.590Z,72.62
2019-02-02T03:16:23.720Z,72.76
2019-02-02T03:18:56.163Z,72.81
2019-02-02T03:21:28.282Z,72.77
2019-02-02T03:24:00.293Z,72.51
2019-02-02T03:26:30.875Z,73.01
2019-02-02T03:29:02.965Z,73.01
2019-02-02T03:31:34.975Z,72.95
2019-02-02T03:34:07.283Z,72.99
2019-02-02T03:36:37.816Z,73.05
2019-02-02T03:39:14.141Z,73.56
2019-02-02T03:41:44.914Z,73.94
2019-02-02T03:44:17.143Z,73.62
2019-02-02T03:46:49.280Z,73.20
2019-02-02T03:49:19.869Z,73.28
2019-02-02T03:51:51.958Z,73.15
2019-02-02T03:54:24.327Z,72.93
2019-02-02T03:56:54.871Z,72.90
2019-02-02T03:59:26.957Z,73.16
2019-02-02T04:01:59.008Z,72.93
2019-02-02T04:04:31.105Z,72.47
2019-02-02T04:07:03.289Z,72.02
2019-02-02T04:09:33.707Z,71.70
2019-02-02T04:12:05.790Z,71.47
2019-02-02T04:14:37.891Z,71.32
2019-02-02T04:17:10.296Z,71.34
2019-02-02T04:19:42.278Z,71.59
2019-02-02T04:22:12.711Z,72.06
2019-02-02T04:24:44.888Z,72.41
2019-02-02T04:27:17.120Z,72.11
2019-02-02T04:29:49.109Z,71.84
2019-02-02T04:32:19.645Z,72.01
2019-02-02T04:34:51.713Z,72.48
2019-02-02T04:37:23.869Z,72.29
2019-02-02T04:39:55.948Z,72.27
2019-02-02T04:42:27.952Z,72.01
2019-02-02T04:45:00.238Z,71.50
2019-02-02T04:47:30.710Z,71.50
2019-02-02T04:50:02.745Z,71.26
2019-02-02T04:52:35.116Z,70.95
2019-02-02T04:55:07.699Z,71.16
2019-02-02T04:57:39.767Z,71.16
2019-02-02T05:00:16.774Z,71.48
2019-02-02T05:02:48.885Z,71.45
2019-02-02T05:05:21.346Z,71.54
2019-02-02T05:07:53.304Z,71.72
2019-02-02T05:10:25.703Z,71.52
2019-02-02T05:12:57.915Z,71.70
2019-02-02T05:15:30.120Z,71.97
2019-02-02T05:18:02.289Z,72.03
2019-02-02T05:20:33.064Z,71.91
2019-02-02T05:23:05.248Z,71.70
2019-02-02T05:25:35.870Z,71.66
2019-02-02T05:28:07.954Z,71.24
2019-02-02T05:30:39.962Z,70.74
2019-02-02T05:33:12.126Z,70.55
2019-02-02T05:35:42.821Z,70.74
2019-02-02T05:38:15.268Z,70.68
2019-02-02T05:40:46.289Z,70.74
2019-02-02T05:43:18.303Z,70.64
2019-02-02T05:45:50.346Z,70.76
2019-02-02T05:48:20.882Z,70.78
2019-02-02T05:50:52.951Z,70.87
2019-02-02T05:53:24.956Z,71.19
2019-02-02T05:55:56.957Z,71.50
2019-02-02T05:58:28.957Z,71.49
2019-02-02T06:01:01.306Z,71.26
2019-02-02T06:03:32.018Z,71.13
2019-02-02T06:06:04.115Z,71.13
2019-02-02T06:08:36.283Z,71.10
2019-02-02T06:11:07.025Z,70.95
2019-02-02T06:13:37.625Z,70.54
2019-02-02T06:16:09.706Z,70.54
2019-02-02T06:18:41.948Z,70.37
2019-02-02T06:21:13.946Z,70.17
2019-02-02T06:23:45.951Z,69.98
2019-02-02T06:26:18.118Z,69.91
2019-02-02T06:28:50.287Z,69.92
2019-02-02T06:31:21.044Z,70.01
2019-02-02T06:33:53.119Z,70.20
2019-02-02T06:36:23.885Z,70.20
2019-02-02T06:38:56.067Z,70.12
2019-02-02T06:41:28.100Z,70.06
2019-02-02T06:44:00.284Z,70.08
2019-02-02T06:49:01.565Z,70.61
2019-02-02T06:51:33.801Z,70.95
2019-02-02T06:54:06.299Z,71.30
2019-02-02T06:56:38.271Z,71.65
2019-02-02T06:59:10.256Z,71.65
2019-02-02T07:01:42.345Z,70.94
2019-02-02T07:04:13.004Z,70.94
2019-02-02T07:06:45.264Z,70.80
2019-02-02T07:09:16.011Z,70.63
2019-02-02T07:11:48.029Z,70.47
2019-02-02T07:14:20.272Z,70.28
2019-02-02T07:16:51.026Z,70.15
2019-02-02T07:19:23.104Z,70.25
2019-02-02T07:21:53.785Z,70.28
2019-02-02T07:24:25.936Z,70.41
2019-02-02T07:26:57.951Z,70.99
2019-02-02T07:29:30.132Z,71.02
2019-02-02T07:32:02.281Z,71.23
2019-02-02T07:34:34.302Z,71.71
2019-02-02T07:37:06.347Z,71.53
2019-02-02T07:39:36.864Z,71.04
2019-02-02T07:42:09.286Z,70.71
2019-02-02T07:44:40.023Z,70.63
2019-02-02T07:47:12.086Z,70.92
2019-02-02T07:49:44.281Z,71.07
2019-02-02T07:52:16.275Z,70.75
2019-02-02T07:54:47.010Z,70.36
2019-02-02T07:57:19.077Z,70.27
2019-02-02T07:59:51.421Z,70.15
2019-02-02T08:02:23.753Z,69.55
2019-02-02T08:04:55.895Z,69.55
2019-02-02T08:07:27.950Z,69.53
2019-02-02T08:09:59.956Z,69.94
2019-02-02T08:12:31.958Z,70.35
2019-02-02T08:15:04.276Z,70.69
2019-02-02T08:17:34.823Z,71.07
2019-02-02T08:20:08.954Z,71.26
2019-02-02T08:22:40.950Z,71.46
2019-02-02T08:25:14.272Z,71.91
2019-02-02T08:27:44.866Z,72.31
2019-02-02T08:30:20.656Z,72.82
2019-02-02T08:32:52.956Z,72.82
2019-02-02T08:35:25.274Z,72.78
2019-02-02T08:37:56.102Z,72.71
2019-02-02T08:40:27.017Z,73.11
2019-02-02T08:42:58.948Z,72.85
2019-02-02T08:45:30.991Z,72.66
2019-02-02T08:48:03.133Z,72.28
2019-02-02T08:50:38.576Z,71.99
2019-02-02T08:53:10.700Z,71.89
2019-02-02T08:55:42.914Z,71.74
2019-02-02T08:58:15.016Z,71.58
2019-02-02T09:00:45.673Z,71.25
2019-02-02T09:03:18.420Z,70.66
2019-02-02T09:05:51.118Z,70.38
2019-02-02T09:08:23.337Z,70.25
2019-02-02T09:10:55.339Z,69.73
2019-02-02T09:13:27.280Z,69.73
2019-02-02T09:15:57.992Z,69.56
2019-02-02T09:18:30.114Z,69.47
2019-02-02T09:21:02.308Z,69.24
2019-02-02T09:23:32.998Z,69.15
2019-02-02T09:26:05.106Z,68.58
2019-02-02T09:28:37.988Z,68.38
2019-02-02T09:31:15.840Z,68.07
2019-02-02T09:33:43.932Z,68.33
2019-02-02T09:36:16.942Z,68.36
2019-02-02T09:38:49.283Z,68.11
2019-02-02T09:41:19.864Z,68.02
2019-02-02T09:43:51.925Z,67.94
2019-02-02T09:46:23.953Z,67.97
2019-02-02T09:48:57.928Z,67.88
2019-02-02T09:51:29.955Z,67.71
2019-02-02T09:54:02.114Z,67.55
2019-02-02T09:56:32.683Z,66.93
2019-02-02T09:59:04.908Z,66.95
2019-02-02T10:01:37.074Z,66.92
2019-02-02T10:04:09.281Z,66.85
2019-02-02T10:06:39.847Z,66.72
2019-02-02T10:09:12.791Z,66.94
2019-02-02T10:11:45.119Z,67.07
2019-02-02T10:14:17.107Z,67.12
2019-02-02T10:16:49.128Z,67.27
2019-02-02T10:19:19.643Z,66.54
2019-02-02T10:21:51.740Z,66.21
2019-02-02T10:24:23.785Z,66.24
2019-02-02T10:26:55.891Z,65.87
2019-02-02T10:29:27.945Z,65.82
2019-02-02T10:31:59.941Z,65.43
2019-02-02T10:34:31.943Z,65.31
2019-02-02T10:37:03.948Z,65.48
2019-02-02T10:39:35.929Z,65.41
2019-02-02T10:42:07.948Z,65.62
2019-02-02T10:44:39.940Z,65.71
2019-02-02T10:47:11.940Z,65.64
2019-02-02T10:49:43.926Z,65.73
2019-02-02T10:52:16.184Z,65.90
2019-02-02T10:54:46.840Z,66.10
2019-02-02T10:57:18.896Z,65.95
2019-02-02T11:01:51.765Z,66.50
2019-02-02T11:04:23.925Z,66.50
2019-02-02T11:06:56.017Z,66.24
2019-02-02T11:09:28.181Z,66.13
2019-02-02T11:12:00.311Z,66.01
2019-02-02T11:14:32.340Z,65.95
2019-02-02T11:17:04.442Z,66.13
2019-02-02T11:19:36.715Z,65.96
2019-02-02T11:22:08.908Z,65.96
2019-02-02T11:24:41.068Z,66.58
2019-02-02T11:27:13.112Z,66.94
2019-02-02T11:29:43.907Z,67.26
2019-02-02T11:32:16.236Z,67.64
2019-02-02T11:34:48.050Z,67.65
2019-02-02T11:37:20.118Z,67.47
2019-02-02T11:39:52.204Z,67.80
2019-02-02T11:42:24.104Z,67.77
2019-02-02T11:44:54.841Z,67.60
2019-02-02T11:47:26.966Z,67.60
2019-02-02T11:49:59.103Z,67.99
2019-02-02T11:52:31.268Z,67.95
2019-02-02T11:55:01.636Z,67.80
2019-02-02T11:57:33.688Z,67.37
2019-02-02T12:00:08.742Z,67.38
2019-02-02T12:02:49.032Z,67.60
2019-02-02T12:05:14.737Z,67.68
2019-02-02T12:07:46.914Z,67.57
2019-02-02T12:10:21.515Z,67.71
2019-02-02T12:12:53.634Z,67.80
2019-02-02T12:15:26.276Z,67.80
2019-02-02T12:17:57.284Z,67.87
2019-02-02T12:20:27.852Z,67.60
2019-02-02T12:22:59.940Z,67.60
2019-02-02T12:25:31.947Z,68.06
2019-02-02T12:28:04.125Z,68.33
2019-02-02T12:30:36.276Z,68.62
2019-02-02T12:33:08.890Z,68.64
2019-02-02T12:35:40.947Z,68.54
2019-02-02T12:38:13.123Z,68.51
2019-02-02T12:40:43.911Z,68.35
2019-02-02T12:43:15.960Z,68.49
2019-02-02T12:45:54.327Z,68.40
2019-02-02T12:48:26.302Z,68.40
2019-02-02T12:50:57.041Z,68.53
2019-02-02T12:53:29.092Z,68.60
2019-02-02T12:55:59.866Z,68.53
2019-02-02T12:58:31.941Z,68.38
2019-02-02T13:01:04.270Z,68.15
2019-02-02T13:03:35.108Z,68.05
2019-02-02T13:06:07.782Z,68.05
2019-02-02T13:08:39.885Z,67.84
2019-02-02T13:11:11.941Z,67.78
2019-02-02T13:13:44.118Z,67.82
2019-02-02T13:16:16.249Z,67.65
2019-02-02T13:18:46.994Z,67.34
2019-02-02T13:21:19.282Z,67.17
2019-02-02T13:23:49.863Z,67.08
2019-02-02T13:26:21.944Z,67.11
2019-02-02T13:28:55.414Z,67.21
2019-02-02T13:31:27.693Z,67.21
2019-02-02T13:33:59.837Z,66.98
2019-02-02T13:36:31.947Z,66.61
2019-02-02T13:39:04.933Z,66.86
2019-02-02T13:41:37.075Z,66.82
2019-02-02T13:44:09.128Z,67.41
2019-02-02T13:46:39.824Z,67.79
2019-02-02T13:49:11.897Z,67.71
2019-02-02T13:51:44.139Z,67.72
2019-02-02T13:54:16.122Z,68.11
2019-02-02T13:56:49.909Z,68.58
2019-02-02T13:59:22.284Z,68.50
2019-02-02T14:01:54.296Z,68.32
2019-02-02T14:04:26.371Z,68.36
2019-02-02T14:06:58.326Z,68.58
2019-02-02T14:09:30.503Z,68.75
2019-02-02T14:12:02.695Z,68.49
2019-02-02T14:14:34.941Z,68.93
2019-02-02T14:17:07.098Z,69.18
2019-02-02T14:19:39.136Z,69.85
2019-02-02T14:22:09.854Z,69.83
2019-02-02T14:24:41.956Z,69.90
2019-02-02T14:27:14.310Z,69.85
2019-02-02T14:29:46.358Z,69.71
2019-02-02T14:32:19.947Z,70.16
2019-02-02T14:34:51.943Z,70.31
2019-02-02T14:37:23.959Z,70.66
2019-02-02T14:39:55.954Z,70.87
2019-02-02T14:42:28.117Z,71.22
2019-02-02T14:44:58.861Z,70.99
2019-02-02T14:47:30.968Z,70.74
2019-02-02T14:50:03.221Z,70.45
2019-02-02T14:52:37.337Z,70.10
2019-02-02T14:55:11.478Z,69.77
2019-02-02T14:57:43.658Z,70.32
2019-02-02T15:00:19.736Z,70.32
2019-02-02T15:02:51.888Z,70.33
2019-02-02T15:05:23.937Z,70.48
2019-02-02T15:07:56.396Z,70.71
2019-02-02T15:10:28.662Z,70.79
2019-02-02T15:13:00.938Z,70.79
2019-02-02T15:15:33.279Z,70.99
2019-02-02T15:18:03.868Z,71.23
2019-02-02T15:20:38.344Z,71.38
2019-02-02T15:23:10.747Z,71.49
2019-02-02T15:25:43.084Z,71.64
2019-02-02T15:28:15.356Z,71.75
2019-02-02T15:30:48.289Z,71.95
2019-02-02T15:33:18.724Z,72.03
2019-02-02T15:35:51.297Z,71.97
2019-02-02T15:38:23.380Z,71.96
2019-02-02T15:40:59.210Z,72.11
2019-02-02T15:43:28.998Z,72.85
2019-02-02T15:46:01.294Z,73.03
2019-02-02T15:48:33.293Z,73.03
2019-02-02T15:51:03.819Z,73.07
2019-02-02T15:53:35.884Z,73.10
2019-02-02T15:56:08.279Z,73.11
2019-02-02T15:58:38.812Z,73.19
2019-02-02T16:01:10.888Z,72.93
2019-02-02T16:03:49.708Z,73.12
2019-02-02T16:06:17.294Z,73.47
2019-02-02T16:08:49.370Z,73.74
2019-02-02T16:11:20.377Z,73.72
2019-02-02T16:13:52.755Z,73.57
2019-02-02T16:16:25.261Z,73.69
2019-02-02T16:18:56.068Z,73.80
2019-02-02T16:21:28.301Z,73.69
2019-02-02T16:23:59.028Z,73.62
2019-02-02T16:26:31.314Z,73.46
2019-02-02T16:29:02.059Z,73.42
2019-02-02T16:31:34.291Z,73.45
2019-02-02T16:34:05.017Z,73.46
2019-02-02T16:36:37.284Z,73.47
2019-02-02T16:39:11.137Z,73.28
2019-02-02T16:41:43.309Z,73.15
2019-02-02T16:44:14.106Z,73.23
2019-02-02T16:46:46.364Z,73.16
2019-02-02T16:49:18.390Z,73.16
2019-02-02T16:51:50.672Z,72.85
2019-02-02T16:54:23.067Z,72.85
2019-02-02T16:56:55.283Z,72.70
2019-02-02T16:59:26.067Z,72.69
2019-02-02T17:01:58.440Z,72.67
2019-02-02T17:04:30.794Z,72.91
2019-02-02T17:07:03.137Z,72.91
2019-02-02T17:09:35.299Z,72.87
2019-02-02T17:12:06.642Z,73.21
2019-02-02T17:14:39.283Z,73.21
2019-02-02T17:17:10.027Z,73.17
2019-02-02T17:19:42.296Z,72.59
2019-02-02T17:22:14.539Z,72.59
2019-02-02T17:24:46.882Z,72.52
2019-02-02T17:27:19.276Z,72.65
2019-02-02T17:29:49.881Z,72.56
2019-02-02T17:32:22.280Z,72.77
2019-02-02T17:34:53.107Z,72.92
2019-02-02T17:38:41.292Z,72.87
2019-02-02T17:41:12.115Z,72.77
2019-02-02T17:43:44.482Z,73.00
2019-02-02T17:46:16.670Z,73.05
2019-02-02T17:48:48.951Z,72.95
2019-02-02T17:51:20.917Z,72.95
2019-02-02T17:53:53.110Z,72.98
2019-02-02T17:56:23.673Z,72.82
2019-02-02T17:58:55.926Z,72.68
2019-02-02T18:01:28.128Z,72.64
2019-02-02T18:04:00.241Z,72.33
2019-02-02T18:06:32.177Z,72.33
2019-02-02T18:09:02.821Z,72.36
2019-02-02T18:11:34.939Z,72.47
2019-02-02T18:14:07.139Z,72.46
2019-02-02T18:16:39.260Z,72.46
2019-02-02T18:19:11.275Z,72.46
2019-02-02T18:21:44.289Z,72.24
2019-02-02T18:24:15.301Z,72.30
2019-02-02T18:26:47.733Z,72.29
2019-02-02T18:29:20.299Z,72.23
2019-02-02T18:31:51.434Z,72.40
2019-02-02T18:34:23.679Z,72.71
2019-02-02T18:36:57.742Z,72.71
2019-02-02T18:39:30.514Z,72.93
2019-02-02T18:42:03.096Z,72.93
2019-02-02T18:44:34.039Z,72.98
2019-02-02T18:47:05.016Z,73.00
2019-02-02T18:49:37.355Z,73.08
2019-02-02T18:52:09.340Z,72.97
2019-02-02T18:54:41.423Z,72.93
2019-02-02T18:57:13.858Z,72.72
2019-02-02T18:59:46.110Z,72.72
2019-02-02T19:02:17.071Z,72.69
2019-02-02T19:04:49.373Z,72.68
2019-02-02T19:07:21.491Z,72.61
2019-02-02T19:09:53.883Z,72.33
2019-02-02T19:12:26.272Z,72.33
2019-02-02T19:17:42.956Z,72.81
2019-02-02T19:20:18.418Z,72.81
2019-02-02T19:22:50.952Z,73.18
2019-02-02T19:25:23.292Z,72.99
2019-02-02T19:27:54.117Z,73.25
2019-02-02T19:30:34.023Z,73.29
2019-02-02T19:33:06.305Z,73.23
2019-02-02T19:35:38.921Z,73.43
2019-02-02T19:38:11.387Z,73.92
2019-02-02T19:40:43.800Z,73.71
2019-02-02T19:43:15.950Z,73.71
2019-02-02T19:45:48.252Z,73.62
2019-02-02T19:48:19.243Z,73.61
2019-02-02T19:50:51.557Z,73.85
2019-02-02T19:53:23.968Z,73.81
2019-02-02T19:55:56.276Z,73.74
2019-02-02T19:58:27.039Z,73.84
2019-02-02T20:00:59.521Z,73.77
2019-02-02T20:03:31.886Z,73.49
2019-02-02T20:06:04.314Z,73.51
2019-02-02T20:08:36.472Z,73.43
2019-02-02T20:11:08.875Z,73.31
2019-02-02T20:13:41.250Z,73.20
2019-02-02T20:16:12.135Z,72.97
2019-02-02T20:18:44.288Z,72.75
2019-02-02T20:21:16.248Z,72.83
2019-02-02T20:23:46.836Z,73.18
2019-02-02T20:26:18.937Z,73.46
2019-02-02T20:28:50.936Z,73.52
2019-02-02T20:31:22.941Z,73.29
2019-02-02T20:33:54.930Z,73.53
2019-02-02T20:36:26.931Z,73.62
2019-02-02T20:38:58.944Z,73.40
2019-02-02T20:41:30.939Z,73.80
2019-02-02T20:44:02.965Z,73.74
2019-02-02T20:46:35.241Z,73.45
2019-02-02T20:49:07.949Z,73.19
2019-02-02T20:51:39.567Z,73.12
2019-02-02T20:54:11.882Z,73.25
2019-02-02T20:56:42.783Z,73.26
2019-02-02T20:59:15.061Z,73.35
2019-02-02T21:01:46.436Z,73.03
2019-02-02T21:04:18.853Z,72.80
2019-02-02T21:06:51.257Z,72.80
2019-02-02T21:09:22.079Z,72.85
2019-02-02T21:11:56.992Z,72.72
2019-02-02T21:14:26.757Z,72.81
2019-02-02T21:16:59.295Z,72.81
2019-02-02T21:19:31.962Z,72.75
2019-02-02T21:22:04.307Z,72.67
2019-02-02T21:24:36.380Z,72.68
2019-02-02T21:27:08.600Z,72.90
2019-02-02T21:29:41.311Z,72.90
2019-02-02T21:32:13.353Z,72.65
2019-02-02T21:34:46.293Z,72.40
2019-02-02T21:37:18.563Z,72.40
2019-02-02T21:39:50.873Z,72.05
2019-02-02T21:42:23.000Z,71.96
2019-02-02T21:44:57.399Z,71.91
2019-02-02T21:47:29.318Z,72.09
2019-02-02T21:50:00.072Z,72.09
2019-02-02T21:52:31.040Z,72.03
2019-02-02T21:55:03.274Z,71.90
2019-02-02T21:57:35.375Z,71.82
2019-02-02T22:00:23.409Z,71.71
2019-02-02T22:02:55.782Z,71.72
2019-02-02T22:05:31.111Z,71.72
2019-02-02T22:08:03.268Z,71.59
2019-02-02T22:10:33.862Z,71.43
2019-02-02T22:13:06.893Z,71.31
2019-02-02T22:15:39.077Z,71.32
2019-02-02T22:18:11.275Z,71.46
2019-02-02T22:20:43.304Z,71.46
2019-02-02T22:23:15.692Z,71.33
2019-02-02T22:25:48.273Z,71.62
2019-02-02T22:28:20.266Z,71.87
2019-02-02T22:30:51.235Z,72.07
2019-02-02T22:33:21.881Z,72.03
2019-02-02T22:35:54.303Z,72.30
2019-02-02T22:38:26.350Z,72.23
2019-02-02T22:40:58.285Z,71.92
2019-02-02T22:43:30.335Z,71.92
2019-02-02T22:46:03.003Z,71.58
2019-02-02T22:48:35.270Z,71.58
2019-02-02T22:51:06.054Z,71.56
2019-02-02T22:53:38.284Z,71.54
2019-02-02T22:56:10.275Z,71.72
2019-02-02T22:58:40.861Z,71.67
2019-02-02T23:01:39.469Z,71.53
2019-02-02T23:04:49.769Z,71.51
2019-02-02T23:08:01.691Z,71.45
2019-02-02T23:11:33.877Z,71.50
2019-02-02T23:14:59.330Z,71.52
2019-02-02T23:17:31.615Z,71.45
2019-02-02T23:20:03.954Z,71.45
2019-02-02T23:22:36.074Z,71.64
2019-02-02T23:25:08.784Z,71.64
2019-02-02T23:27:40.951Z,71.85
2019-02-02T23:30:14.754Z,71.90
2019-02-02T23:32:46.873Z,71.93
2019-02-02T23:35:18.950Z,72.06
2019-02-02T23:40:50.696Z,72.14
2019-02-02T23:43:22.895Z,72.14
2019-02-02T23:45:54.957Z,71.85
2019-02-02T23:48:27.087Z,71.61
2019-02-02T23:50:59.350Z,71.46
2019-02-02T23:53:31.324Z,71.11
2019-02-02T23:56:03.352Z,71.11
2019-02-02T23:58:34.040Z,70.83
